LKCE weather

Česká Lípa Airport
Česká Lípa, Liberec Region, Czech Republic

Public forecast

Using degrees Celsius for public forecast. Weather courtesy of forecast.io.

Closest aviation weather report (METAR) to Česká Lípa Airport

Report is more than 6 hours old.

Closest report is Liberec Airport, 17.8 nm (32.9 km) ENE. Retrieved 2013/01/02 06:02 UTC (8 years ago):

LKLB 020602Z 16003KT 9999 FEW016 BKN043 M01/M02 Q1016

Closest aviation forecast (TAF) to Česká Lípa Airport

Closest forecast is Kbely Air Base, 35.3 nm (65.4 km) S. Retrieved 2020/07/10 12:00 UTC (51 minutes ago):

TAF LKKB 101100Z 1012/1112 20012KT CAVOK TEMPO 1012/1022 30015G25KT 6000 SHRA BKN045TCU PROB30 TEMPO 1014/1022 34018G36KT 4000 TSRA BKN040CB BECMG 1101/1103 31008KT RA BKN030 TEMPO 1102/1110 4000 RA BR BKN012 OVC020 BECMG 1109/1111 01004KT NSW SCT033